sensor_id;sensor_type;location;lat;lon;timestamp;P1;durP1;ratioP1;P2;durP2;ratioP2
6292;SDS011;3179;54.350;10.102;2022-10-30T00:01:02;23.80;;;14.40;;
6292;SDS011;3179;54.350;10.102;2022-10-30T00:03:29;26.00;;;12.80;;
6292;SDS011;3179;54.350;10.102;2022-10-30T00:05:56;18.40;;;12.90;;
6292;SDS011;3179;54.350;10.102;2022-10-30T00:08:23;23.17;;;12.97;;
6292;SDS011;3179;54.350;10.102;2022-10-30T00:10:50;23.20;;;13.70;;
6292;SDS011;3179;54.350;10.102;2022-10-30T00:13:18;18.67;;;12.70;;
6292;SDS011;3179;54.350;10.102;2022-10-30T00:15:47;17.27;;;11.70;;
6292;SDS011;3179;54.350;10.102;2022-10-30T00:18:14;23.70;;;12.77;;
6292;SDS011;3179;54.350;10.102;2022-10-30T00:20:41;21.87;;;12.80;;
6292;SDS011;3179;54.350;10.102;2022-10-30T00:23:08;20.47;;;11.73;;
6292;SDS011;3179;54.350;10.102;2022-10-30T00:25:35;18.73;;;12.43;;
6292;SDS011;3179;54.350;10.102;2022-10-30T00:28:02;25.80;;;12.60;;
6292;SDS011;3179;54.350;10.102;2022-10-30T00:30:29;18.00;;;12.63;;
6292;SDS011;3179;54.350;10.102;2022-10-30T00:32:58;19.00;;;13.20;;
6292;SDS011;3179;54.350;10.102;2022-10-30T00:35:24;19.63;;;12.27;;
6292;SDS011;3179;54.350;10.102;2022-10-30T00:37:51;21.97;;;11.83;;
6292;SDS011;3179;54.350;10.102;2022-10-30T00:40:18;15.57;;;12.07;;
6292;SDS011;3179;54.350;10.102;2022-10-30T00:42:45;23.47;;;11.80;;
6292;SDS011;3179;54.350;10.102;2022-10-30T00:45:13;17.43;;;11.90;;
6292;SDS011;3179;54.350;10.102;2022-10-30T00:47:41;18.90;;;11.33;;
6292;SDS011;3179;54.350;10.102;2022-10-30T00:50:12;18.70;;;12.67;;
6292;SDS011;3179;54.350;10.102;2022-10-30T00:52:42;19.40;;;10.77;;
6292;SDS011;3179;54.350;10.102;2022-10-30T00:55:13;21.13;;;11.73;;
6292;SDS011;3179;54.350;10.102;2022-10-30T00:57:42;20.20;;;10.80;;
6292;SDS011;3179;54.350;10.102;2022-10-30T01:00:10;16.20;;;10.60;;
6292;SDS011;3179;54.350;10.102;2022-10-30T01:02:38;18.73;;;11.40;;
6292;SDS011;3179;54.350;10.102;2022-10-30T01:05:07;16.37;;;10.90;;
6292;SDS011;3179;54.350;10.102;2022-10-30T01:07:37;16.67;;;11.27;;
6292;SDS011;3179;54.350;10.102;2022-10-30T01:10:04;21.43;;;11.87;;
6292;SDS011;3179;54.350;10.102;2022-10-30T01:12:31;13.80;;;10.20;;
6292;SDS011;3179;54.350;10.102;2022-10-30T01:14:58;16.97;;;11.00;;
6292;SDS011;3179;54.350;10.102;2022-10-30T01:17:33;16.60;;;11.00;;
6292;SDS011;3179;54.350;10.102;2022-10-30T01:20:32;16.80;;;11.70;;
6292;SDS011;3179;54.350;10.102;2022-10-30T01:23:16;15.37;;;10.73;;
6292;SDS011;3179;54.350;10.102;2022-10-30T01:25:55;21.10;;;10.67;;
6292;SDS011;3179;54.350;10.102;2022-10-30T01:28:34;17.07;;;10.80;;
6292;SDS011;3179;54.350;10.102;2022-10-30T01:31:17;14.50;;;10.80;;
6292;SDS011;3179;54.350;10.102;2022-10-30T01:33:58;15.17;;;11.20;;
6292;SDS011;3179;54.350;10.102;2022-10-30T01:36:35;17.60;;;11.00;;
6292;SDS011;3179;54.350;10.102;2022-10-30T01:39:09;15.13;;;11.63;;
6292;SDS011;3179;54.350;10.102;2022-10-30T01:41:37;17.33;;;11.90;;
6292;SDS011;3179;54.350;10.102;2022-10-30T01:44:05;15.50;;;10.53;;
6292;SDS011;3179;54.350;10.102;2022-10-30T01:46:40;17.87;;;12.40;;
6292;SDS011;3179;54.350;10.102;2022-10-30T01:49:14;22.27;;;13.47;;
6292;SDS011;3179;54.350;10.102;2022-10-30T01:52:05;20.23;;;11.90;;
6292;SDS011;3179;54.350;10.102;2022-10-30T01:54:41;16.87;;;12.07;;
6292;SDS011;3179;54.350;10.102;2022-10-30T01:57:17;17.20;;;11.73;;
6292;SDS011;3179;54.350;10.102;2022-10-30T01:59:55;18.37;;;10.70;;
6292;SDS011;3179;54.350;10.102;2022-10-30T02:02:25;13.87;;;10.47;;
6292;SDS011;3179;54.350;10.102;2022-10-30T02:04:52;17.10;;;12.20;;
6292;SDS011;3179;54.350;10.102;2022-10-30T02:07:18;18.50;;;12.67;;
6292;SDS011;3179;54.350;10.102;2022-10-30T02:09:47;19.10;;;13.30;;
6292;SDS011;3179;54.350;10.102;2022-10-30T02:12:16;18.47;;;12.17;;
6292;SDS011;3179;54.350;10.102;2022-10-30T02:14:44;16.97;;;11.83;;
6292;SDS011;3179;54.350;10.102;2022-10-30T02:17:13;18.50;;;11.93;;
6292;SDS011;3179;54.350;10.102;2022-10-30T02:19:40;16.93;;;12.43;;
6292;SDS011;3179;54.350;10.102;2022-10-30T02:22:08;29.30;;;12.23;;
6292;SDS011;3179;54.350;10.102;2022-10-30T02:24:35;23.07;;;12.00;;
6292;SDS011;3179;54.350;10.102;2022-10-30T02:27:02;22.13;;;14.27;;
6292;SDS011;3179;54.350;10.102;2022-10-30T02:29:32;23.90;;;12.77;;
6292;SDS011;3179;54.350;10.102;2022-10-30T02:31:59;21.70;;;13.70;;
6292;SDS011;3179;54.350;10.102;2022-10-30T02:34:26;21.37;;;14.17;;
6292;SDS011;3179;54.350;10.102;2022-10-30T02:36:53;29.03;;;12.77;;
6292;SDS011;3179;54.350;10.102;2022-10-30T02:39:21;23.37;;;13.50;;
6292;SDS011;3179;54.350;10.102;2022-10-30T02:41:47;21.00;;;14.07;;
6292;SDS011;3179;54.350;10.102;2022-10-30T02:44:14;19.87;;;12.87;;
6292;SDS011;3179;54.350;10.102;2022-10-30T02:46:41;17.40;;;13.37;;
6292;SDS011;3179;54.350;10.102;2022-10-30T02:49:07;23.47;;;12.77;;
6292;SDS011;3179;54.350;10.102;2022-10-30T02:51:34;20.67;;;14.07;;
6292;SDS011;3179;54.350;10.102;2022-10-30T02:54:01;20.47;;;13.23;;
6292;SDS011;3179;54.350;10.102;2022-10-30T02:56:29;18.63;;;13.40;;
6292;SDS011;3179;54.350;10.102;2022-10-30T02:58:56;18.03;;;13.13;;
6292;SDS011;3179;54.350;10.102;2022-10-30T03:01:23;23.07;;;13.13;;
6292;SDS011;3179;54.350;10.102;2022-10-30T03:03:49;23.20;;;13.07;;
6292;SDS011;3179;54.350;10.102;2022-10-30T03:06:16;18.03;;;12.93;;
6292;SDS011;3179;54.350;10.102;2022-10-30T03:08:43;23.80;;;14.27;;
6292;SDS011;3179;54.350;10.102;2022-10-30T03:11:10;22.80;;;14.00;;
6292;SDS011;3179;54.350;10.102;2022-10-30T03:13:41;22.13;;;13.83;;
6292;SDS011;3179;54.350;10.102;2022-10-30T03:16:09;24.40;;;13.70;;
6292;SDS011;3179;54.350;10.102;2022-10-30T03:18:37;22.60;;;14.30;;
6292;SDS011;3179;54.350;10.102;2022-10-30T03:21:05;22.03;;;14.13;;
6292;SDS011;3179;54.350;10.102;2022-10-30T03:23:33;24.10;;;13.97;;
6292;SDS011;3179;54.350;10.102;2022-10-30T03:26:01;20.83;;;14.03;;
6292;SDS011;3179;54.350;10.102;2022-10-30T03:28:29;20.33;;;13.60;;
6292;SDS011;3179;54.350;10.102;2022-10-30T03:30:59;20.10;;;14.17;;
6292;SDS011;3179;54.350;10.102;2022-10-30T03:33:26;20.60;;;14.20;;
6292;SDS011;3179;54.350;10.102;2022-10-30T03:35:54;17.27;;;12.60;;
6292;SDS011;3179;54.350;10.102;2022-10-30T03:38:23;22.53;;;14.00;;
6292;SDS011;3179;54.350;10.102;2022-10-30T03:40:51;23.80;;;12.97;;
6292;SDS011;3179;54.350;10.102;2022-10-30T03:43:18;21.33;;;14.37;;
6292;SDS011;3179;54.350;10.102;2022-10-30T03:45:45;16.83;;;12.57;;
6292;SDS011;3179;54.350;10.102;2022-10-30T03:48:14;20.47;;;12.60;;
6292;SDS011;3179;54.350;10.102;2022-10-30T03:50:41;19.93;;;12.60;;
6292;SDS011;3179;54.350;10.102;2022-10-30T03:53:08;18.97;;;12.63;;
6292;SDS011;3179;54.350;10.102;2022-10-30T03:55:35;20.13;;;13.57;;
6292;SDS011;3179;54.350;10.102;2022-10-30T03:58:02;23.53;;;14.10;;
6292;SDS011;3179;54.350;10.102;2022-10-30T04:00:29;21.00;;;14.83;;
6292;SDS011;3179;54.350;10.102;2022-10-30T04:02:56;20.93;;;13.57;;
6292;SDS011;3179;54.350;10.102;2022-10-30T04:05:24;19.33;;;13.00;;
6292;SDS011;3179;54.350;10.102;2022-10-30T04:07:54;20.20;;;13.30;;
6292;SDS011;3179;54.350;10.102;2022-10-30T04:10:21;17.40;;;12.90;;
6292;SDS011;3179;54.350;10.102;2022-10-30T04:12:48;19.90;;;14.00;;
6292;SDS011;3179;54.350;10.102;2022-10-30T04:15:16;20.97;;;13.60;;
6292;SDS011;3179;54.350;10.102;2022-10-30T04:17:47;26.07;;;14.53;;
6292;SDS011;3179;54.350;10.102;2022-10-30T04:20:15;21.03;;;13.30;;
6292;SDS011;3179;54.350;10.102;2022-10-30T04:22:43;19.00;;;12.33;;
6292;SDS011;3179;54.350;10.102;2022-10-30T04:25:11;18.33;;;13.07;;
6292;SDS011;3179;54.350;10.102;2022-10-30T04:27:38;21.37;;;13.00;;
6292;SDS011;3179;54.350;10.102;2022-10-30T04:30:06;22.33;;;13.87;;
6292;SDS011;3179;54.350;10.102;2022-10-30T04:32:34;25.63;;;13.20;;
6292;SDS011;3179;54.350;10.102;2022-10-30T04:35:01;19.17;;;13.47;;
6292;SDS011;3179;54.350;10.102;2022-10-30T04:37:28;21.77;;;13.50;;
6292;SDS011;3179;54.350;10.102;2022-10-30T04:39:56;20.40;;;13.50;;
6292;SDS011;3179;54.350;10.102;2022-10-30T04:42:23;21.30;;;14.43;;
6292;SDS011;3179;54.350;10.102;2022-10-30T04:44:50;23.20;;;14.00;;
6292;SDS011;3179;54.350;10.102;2022-10-30T04:47:17;25.90;;;14.23;;
6292;SDS011;3179;54.350;10.102;2022-10-30T04:49:43;17.33;;;13.77;;
6292;SDS011;3179;54.350;10.102;2022-10-30T04:52:10;23.00;;;14.17;;
6292;SDS011;3179;54.350;10.102;2022-10-30T04:54:37;21.20;;;13.70;;
6292;SDS011;3179;54.350;10.102;2022-10-30T04:57:05;25.60;;;14.33;;
6292;SDS011;3179;54.350;10.102;2022-10-30T04:59:33;18.70;;;13.37;;
6292;SDS011;3179;54.350;10.102;2022-10-30T05:01:59;23.83;;;14.93;;
6292;SDS011;3179;54.350;10.102;2022-10-30T05:04:26;25.43;;;15.40;;
6292;SDS011;3179;54.350;10.102;2022-10-30T05:06:53;19.97;;;13.43;;
6292;SDS011;3179;54.350;10.102;2022-10-30T05:09:20;17.83;;;13.37;;
6292;SDS011;3179;54.350;10.102;2022-10-30T05:11:46;19.50;;;13.87;;
6292;SDS011;3179;54.350;10.102;2022-10-30T05:14:15;19.30;;;13.23;;
6292;SDS011;3179;54.350;10.102;2022-10-30T05:16:41;18.70;;;13.43;;
6292;SDS011;3179;54.350;10.102;2022-10-30T05:19:08;18.53;;;12.60;;
6292;SDS011;3179;54.350;10.102;2022-10-30T05:21:35;19.53;;;13.00;;
6292;SDS011;3179;54.350;10.102;2022-10-30T05:24:01;19.00;;;12.90;;
6292;SDS011;3179;54.350;10.102;2022-10-30T05:26:28;21.33;;;14.43;;
6292;SDS011;3179;54.350;10.102;2022-10-30T05:28:55;20.70;;;13.70;;
6292;SDS011;3179;54.350;10.102;2022-10-30T05:31:23;22.00;;;13.03;;
6292;SDS011;3179;54.350;10.102;2022-10-30T05:33:50;21.57;;;13.50;;
6292;SDS011;3179;54.350;10.102;2022-10-30T05:36:17;24.00;;;14.63;;
6292;SDS011;3179;54.350;10.102;2022-10-30T05:38:43;21.43;;;14.17;;
6292;SDS011;3179;54.350;10.102;2022-10-30T05:41:10;17.10;;;12.83;;
6292;SDS011;3179;54.350;10.102;2022-10-30T05:43:38;19.43;;;12.20;;
6292;SDS011;3179;54.350;10.102;2022-10-30T05:46:04;21.60;;;12.97;;
6292;SDS011;3179;54.350;10.102;2022-10-30T05:48:32;20.17;;;12.50;;
6292;SDS011;3179;54.350;10.102;2022-10-30T05:50:59;19.13;;;11.97;;
6292;SDS011;3179;54.350;10.102;2022-10-30T05:53:26;18.83;;;12.70;;
6292;SDS011;3179;54.350;10.102;2022-10-30T05:55:54;15.20;;;12.00;;
6292;SDS011;3179;54.350;10.102;2022-10-30T05:58:21;15.73;;;11.00;;
6292;SDS011;3179;54.350;10.102;2022-10-30T06:00:48;20.47;;;12.10;;
6292;SDS011;3179;54.350;10.102;2022-10-30T06:03:16;17.63;;;11.80;;
6292;SDS011;3179;54.350;10.102;2022-10-30T06:05:44;15.37;;;11.87;;
6292;SDS011;3179;54.350;10.102;2022-10-30T06:08:12;19.90;;;11.33;;
6292;SDS011;3179;54.350;10.102;2022-10-30T06:10:40;22.43;;;12.20;;
6292;SDS011;3179;54.350;10.102;2022-10-30T06:13:08;19.37;;;11.67;;
6292;SDS011;3179;54.350;10.102;2022-10-30T06:15:35;22.80;;;12.10;;
6292;SDS011;3179;54.350;10.102;2022-10-30T06:18:02;15.67;;;12.27;;
6292;SDS011;3179;54.350;10.102;2022-10-30T06:20:29;17.87;;;11.30;;
6292;SDS011;3179;54.350;10.102;2022-10-30T06:22:58;18.37;;;11.47;;
6292;SDS011;3179;54.350;10.102;2022-10-30T06:25:26;19.60;;;12.63;;
6292;SDS011;3179;54.350;10.102;2022-10-30T06:27:53;16.47;;;11.63;;
6292;SDS011;3179;54.350;10.102;2022-10-30T06:30:20;18.77;;;13.00;;
6292;SDS011;3179;54.350;10.102;2022-10-30T06:32:47;17.43;;;12.00;;
6292;SDS011;3179;54.350;10.102;2022-10-30T06:35:13;17.97;;;11.30;;
6292;SDS011;3179;54.350;10.102;2022-10-30T06:37:44;18.97;;;12.27;;
6292;SDS011;3179;54.350;10.102;2022-10-30T06:40:12;17.33;;;11.00;;
6292;SDS011;3179;54.350;10.102;2022-10-30T06:42:43;15.80;;;11.30;;
6292;SDS011;3179;54.350;10.102;2022-10-30T06:45:10;14.33;;;11.40;;
6292;SDS011;3179;54.350;10.102;2022-10-30T06:47:37;15.77;;;11.40;;
6292;SDS011;3179;54.350;10.102;2022-10-30T06:50:05;20.80;;;12.07;;
6292;SDS011;3179;54.350;10.102;2022-10-30T06:52:33;16.60;;;10.40;;
6292;SDS011;3179;54.350;10.102;2022-10-30T06:55:00;16.50;;;11.30;;
6292;SDS011;3179;54.350;10.102;2022-10-30T06:57:28;18.13;;;10.50;;
6292;SDS011;3179;54.350;10.102;2022-10-30T06:59:55;21.10;;;11.57;;
6292;SDS011;3179;54.350;10.102;2022-10-30T07:02:22;17.80;;;10.27;;
6292;SDS011;3179;54.350;10.102;2022-10-30T07:04:49;15.43;;;10.80;;
6292;SDS011;3179;54.350;10.102;2022-10-30T07:07:16;11.97;;;9.40;;
6292;SDS011;3179;54.350;10.102;2022-10-30T07:09:43;16.30;;;10.27;;
6292;SDS011;3179;54.350;10.102;2022-10-30T07:12:10;16.50;;;10.87;;
6292;SDS011;3179;54.350;10.102;2022-10-30T07:14:39;15.90;;;10.10;;
6292;SDS011;3179;54.350;10.102;2022-10-30T07:17:05;17.17;;;10.43;;
6292;SDS011;3179;54.350;10.102;2022-10-30T07:19:32;17.47;;;9.60;;
6292;SDS011;3179;54.350;10.102;2022-10-30T07:21:59;19.77;;;10.93;;
6292;SDS011;3179;54.350;10.102;2022-10-30T07:24:26;20.97;;;11.00;;
6292;SDS011;3179;54.350;10.102;2022-10-30T07:26:53;13.83;;;10.10;;
6292;SDS011;3179;54.350;10.102;2022-10-30T07:29:20;16.00;;;10.37;;
6292;SDS011;3179;54.350;10.102;2022-10-30T07:31:48;15.00;;;10.77;;
6292;SDS011;3179;54.350;10.102;2022-10-30T07:34:15;12.97;;;9.17;;
6292;SDS011;3179;54.350;10.102;2022-10-30T07:36:42;18.93;;;9.40;;
6292;SDS011;3179;54.350;10.102;2022-10-30T07:39:08;12.70;;;8.23;;
6292;SDS011;3179;54.350;10.102;2022-10-30T07:41:35;12.63;;;9.63;;
6292;SDS011;3179;54.350;10.102;2022-10-30T07:44:02;16.60;;;9.77;;
6292;SDS011;3179;54.350;10.102;2022-10-30T07:46:29;16.17;;;9.60;;
6292;SDS011;3179;54.350;10.102;2022-10-30T07:48:57;13.40;;;8.90;;
6292;SDS011;3179;54.350;10.102;2022-10-30T07:51:23;13.60;;;9.70;;
6292;SDS011;3179;54.350;10.102;2022-10-30T07:53:50;14.87;;;9.00;;
6292;SDS011;3179;54.350;10.102;2022-10-30T07:56:17;18.60;;;10.07;;
6292;SDS011;3179;54.350;10.102;2022-10-30T07:58:43;16.60;;;9.10;;
6292;SDS011;3179;54.350;10.102;2022-10-30T08:01:10;13.53;;;9.27;;
6292;SDS011;3179;54.350;10.102;2022-10-30T08:03:37;14.03;;;8.77;;
6292;SDS011;3179;54.350;10.102;2022-10-30T08:06:05;12.30;;;8.23;;
6292;SDS011;3179;54.350;10.102;2022-10-30T08:08:32;12.07;;;8.63;;
6292;SDS011;3179;54.350;10.102;2022-10-30T08:10:59;12.00;;;8.60;;
6292;SDS011;3179;54.350;10.102;2022-10-30T08:13:25;18.53;;;8.27;;
6292;SDS011;3179;54.350;10.102;2022-10-30T08:15:52;14.37;;;8.93;;
6292;SDS011;3179;54.350;10.102;2022-10-30T08:18:19;13.43;;;9.40;;
6292;SDS011;3179;54.350;10.102;2022-10-30T08:20:47;13.60;;;8.10;;
6292;SDS011;3179;54.350;10.102;2022-10-30T08:23:16;14.23;;;9.20;;
6292;SDS011;3179;54.350;10.102;2022-10-30T08:25:43;13.70;;;8.20;;
6292;SDS011;3179;54.350;10.102;2022-10-30T08:28:11;17.90;;;9.20;;
6292;SDS011;3179;54.350;10.102;2022-10-30T08:30:38;11.23;;;8.23;;
6292;SDS011;3179;54.350;10.102;2022-10-30T08:33:05;13.27;;;9.10;;
6292;SDS011;3179;54.350;10.102;2022-10-30T08:35:35;16.00;;;8.87;;
6292;SDS011;3179;54.350;10.102;2022-10-30T08:38:02;14.60;;;9.50;;
6292;SDS011;3179;54.350;10.102;2022-10-30T08:40:30;11.30;;;8.30;;
6292;SDS011;3179;54.350;10.102;2022-10-30T08:42:56;14.50;;;9.33;;
6292;SDS011;3179;54.350;10.102;2022-10-30T08:45:24;18.90;;;9.60;;
6292;SDS011;3179;54.350;10.102;2022-10-30T08:47:57;14.40;;;9.73;;
6292;SDS011;3179;54.350;10.102;2022-10-30T08:50:24;18.73;;;9.17;;
6292;SDS011;3179;54.350;10.102;2022-10-30T08:52:51;18.13;;;9.80;;
6292;SDS011;3179;54.350;10.102;2022-10-30T08:55:18;16.77;;;9.60;;
6292;SDS011;3179;54.350;10.102;2022-10-30T08:57:46;16.63;;;10.17;;
6292;SDS011;3179;54.350;10.102;2022-10-30T09:00:13;15.03;;;9.43;;
6292;SDS011;3179;54.350;10.102;2022-10-30T09:02:40;15.17;;;9.77;;
6292;SDS011;3179;54.350;10.102;2022-10-30T09:05:07;19.90;;;10.13;;
6292;SDS011;3179;54.350;10.102;2022-10-30T09:07:34;17.07;;;8.73;;
6292;SDS011;3179;54.350;10.102;2022-10-30T09:10:01;17.50;;;9.60;;
6292;SDS011;3179;54.350;10.102;2022-10-30T09:12:28;13.73;;;9.70;;
6292;SDS011;3179;54.350;10.102;2022-10-30T09:14:57;15.50;;;9.83;;
6292;SDS011;3179;54.350;10.102;2022-10-30T09:17:23;17.67;;;9.53;;
6292;SDS011;3179;54.350;10.102;2022-10-30T09:19:50;17.40;;;10.43;;
6292;SDS011;3179;54.350;10.102;2022-10-30T09:22:17;16.93;;;8.00;;
6292;SDS011;3179;54.350;10.102;2022-10-30T09:24:44;21.80;;;9.93;;
6292;SDS011;3179;54.350;10.102;2022-10-30T09:27:12;12.80;;;9.30;;
6292;SDS011;3179;54.350;10.102;2022-10-30T09:29:39;15.40;;;9.40;;
6292;SDS011;3179;54.350;10.102;2022-10-30T09:32:08;23.97;;;10.43;;
6292;SDS011;3179;54.350;10.102;2022-10-30T09:34:35;13.27;;;9.67;;
6292;SDS011;3179;54.350;10.102;2022-10-30T09:37:03;16.40;;;9.20;;
6292;SDS011;3179;54.350;10.102;2022-10-30T09:39:30;16.83;;;10.00;;
6292;SDS011;3179;54.350;10.102;2022-10-30T09:42:11;18.43;;;10.50;;
6292;SDS011;3179;54.350;10.102;2022-10-30T09:44:53;16.40;;;9.80;;
6292;SDS011;3179;54.350;10.102;2022-10-30T09:47:32;15.17;;;9.33;;
6292;SDS011;3179;54.350;10.102;2022-10-30T09:50:12;17.73;;;9.80;;
6292;SDS011;3179;54.350;10.102;2022-10-30T09:52:51;16.80;;;9.70;;
6292;SDS011;3179;54.350;10.102;2022-10-30T09:55:29;16.10;;;10.40;;
6292;SDS011;3179;54.350;10.102;2022-10-30T09:58:06;23.70;;;11.20;;
6292;SDS011;3179;54.350;10.102;2022-10-30T10:00:43;18.60;;;10.47;;
6292;SDS011;3179;54.350;10.102;2022-10-30T10:03:19;15.43;;;9.83;;
6292;SDS011;3179;54.350;10.102;2022-10-30T10:05:58;24.07;;;9.90;;
6292;SDS011;3179;54.350;10.102;2022-10-30T10:08:28;18.23;;;10.00;;
6292;SDS011;3179;54.350;10.102;2022-10-30T10:11:00;20.43;;;10.10;;
6292;SDS011;3179;54.350;10.102;2022-10-30T10:13:34;20.30;;;10.23;;
6292;SDS011;3179;54.350;10.102;2022-10-30T10:16:06;19.90;;;10.80;;
6292;SDS011;3179;54.350;10.102;2022-10-30T10:18:42;17.60;;;9.97;;
6292;SDS011;3179;54.350;10.102;2022-10-30T10:21:12;17.20;;;10.10;;
6292;SDS011;3179;54.350;10.102;2022-10-30T10:23:46;19.43;;;9.63;;
6292;SDS011;3179;54.350;10.102;2022-10-30T10:26:22;22.63;;;10.20;;
6292;SDS011;3179;54.350;10.102;2022-10-30T10:29:06;16.50;;;9.53;;
6292;SDS011;3179;54.350;10.102;2022-10-30T10:31:51;19.53;;;9.97;;
6292;SDS011;3179;54.350;10.102;2022-10-30T10:34:28;19.10;;;11.73;;
6292;SDS011;3179;54.350;10.102;2022-10-30T10:37:05;21.80;;;11.23;;
6292;SDS011;3179;54.350;10.102;2022-10-30T10:39:52;19.17;;;10.33;;
6292;SDS011;3179;54.350;10.102;2022-10-30T10:42:37;30.43;;;11.80;;
6292;SDS011;3179;54.350;10.102;2022-10-30T10:45:16;25.73;;;11.30;;
6292;SDS011;3179;54.350;10.102;2022-10-30T10:47:53;18.53;;;10.30;;
6292;SDS011;3179;54.350;10.102;2022-10-30T10:50:35;18.03;;;9.27;;
6292;SDS011;3179;54.350;10.102;2022-10-30T10:53:10;16.97;;;10.30;;
6292;SDS011;3179;54.350;10.102;2022-10-30T10:55:43;17.73;;;10.83;;
6292;SDS011;3179;54.350;10.102;2022-10-30T10:58:14;13.93;;;10.70;;
6292;SDS011;3179;54.350;10.102;2022-10-30T11:00:48;19.80;;;9.90;;
6292;SDS011;3179;54.350;10.102;2022-10-30T11:03:16;17.03;;;9.13;;
6292;SDS011;3179;54.350;10.102;2022-10-30T11:05:49;20.03;;;11.03;;
6292;SDS011;3179;54.350;10.102;2022-10-30T11:08:18;15.50;;;9.47;;
6292;SDS011;3179;54.350;10.102;2022-10-30T11:10:48;19.17;;;10.67;;
6292;SDS011;3179;54.350;10.102;2022-10-30T11:13:21;15.83;;;9.30;;
6292;SDS011;3179;54.350;10.102;2022-10-30T11:15:51;17.57;;;9.90;;
6292;SDS011;3179;54.350;10.102;2022-10-30T11:18:23;20.90;;;10.30;;
6292;SDS011;3179;54.350;10.102;2022-10-30T11:20:53;15.93;;;9.83;;
6292;SDS011;3179;54.350;10.102;2022-10-30T11:23:35;20.90;;;9.93;;
6292;SDS011;3179;54.350;10.102;2022-10-30T11:26:04;17.37;;;8.50;;
6292;SDS011;3179;54.350;10.102;2022-10-30T11:28:47;18.90;;;10.67;;
6292;SDS011;3179;54.350;10.102;2022-10-30T11:31:17;15.50;;;9.93;;
6292;SDS011;3179;54.350;10.102;2022-10-30T11:33:45;20.37;;;10.30;;
6292;SDS011;3179;54.350;10.102;2022-10-30T11:36:14;19.60;;;11.37;;
6292;SDS011;3179;54.350;10.102;2022-10-30T11:38:42;19.30;;;10.93;;
6292;SDS011;3179;54.350;10.102;2022-10-30T11:41:09;19.40;;;10.30;;
6292;SDS011;3179;54.350;10.102;2022-10-30T11:43:37;17.40;;;9.60;;
6292;SDS011;3179;54.350;10.102;2022-10-30T11:46:05;17.13;;;10.70;;
6292;SDS011;3179;54.350;10.102;2022-10-30T11:48:36;20.13;;;9.90;;
6292;SDS011;3179;54.350;10.102;2022-10-30T11:51:04;19.63;;;10.47;;
6292;SDS011;3179;54.350;10.102;2022-10-30T11:53:33;17.30;;;9.63;;
6292;SDS011;3179;54.350;10.102;2022-10-30T11:56:09;15.00;;;10.10;;
6292;SDS011;3179;54.350;10.102;2022-10-30T11:58:41;18.40;;;8.70;;
6292;SDS011;3179;54.350;10.102;2022-10-30T12:01:13;19.60;;;8.60;;
6292;SDS011;3179;54.350;10.102;2022-10-30T12:03:45;22.00;;;10.60;;
6292;SDS011;3179;54.350;10.102;2022-10-30T12:06:17;24.53;;;9.87;;
6292;SDS011;3179;54.350;10.102;2022-10-30T12:09:00;24.70;;;10.97;;
6292;SDS011;3179;54.350;10.102;2022-10-30T12:11:29;28.53;;;11.30;;
6292;SDS011;3179;54.350;10.102;2022-10-30T12:13:57;23.63;;;11.07;;
6292;SDS011;3179;54.350;10.102;2022-10-30T12:16:25;22.37;;;11.70;;
6292;SDS011;3179;54.350;10.102;2022-10-30T12:18:54;24.57;;;11.57;;
6292;SDS011;3179;54.350;10.102;2022-10-30T12:21:25;22.10;;;10.87;;
6292;SDS011;3179;54.350;10.102;2022-10-30T12:23:55;16.80;;;9.90;;
6292;SDS011;3179;54.350;10.102;2022-10-30T12:26:26;20.60;;;9.50;;
6292;SDS011;3179;54.350;10.102;2022-10-30T12:28:57;15.70;;;10.50;;
6292;SDS011;3179;54.350;10.102;2022-10-30T12:31:29;18.53;;;10.37;;
6292;SDS011;3179;54.350;10.102;2022-10-30T12:34:09;21.57;;;9.90;;
6292;SDS011;3179;54.350;10.102;2022-10-30T12:36:44;19.43;;;9.37;;
6292;SDS011;3179;54.350;10.102;2022-10-30T12:39:16;19.40;;;10.70;;
6292;SDS011;3179;54.350;10.102;2022-10-30T12:41:50;18.20;;;9.40;;
6292;SDS011;3179;54.350;10.102;2022-10-30T12:44:24;26.10;;;10.10;;
6292;SDS011;3179;54.350;10.102;2022-10-30T12:46:55;20.00;;;9.70;;
6292;SDS011;3179;54.350;10.102;2022-10-30T12:49:26;18.57;;;11.27;;
6292;SDS011;3179;54.350;10.102;2022-10-30T12:52:04;18.73;;;11.40;;
6292;SDS011;3179;54.350;10.102;2022-10-30T12:54:37;19.73;;;9.53;;
6292;SDS011;3179;54.350;10.102;2022-10-30T12:57:09;20.07;;;10.50;;
6292;SDS011;3179;54.350;10.102;2022-10-30T12:59:42;15.63;;;10.33;;
6292;SDS011;3179;54.350;10.102;2022-10-30T13:02:19;20.87;;;10.60;;
6292;SDS011;3179;54.350;10.102;2022-10-30T13:04:56;21.50;;;9.40;;
6292;SDS011;3179;54.350;10.102;2022-10-30T13:07:28;14.97;;;9.70;;
6292;SDS011;3179;54.350;10.102;2022-10-30T13:10:02;18.80;;;10.50;;
6292;SDS011;3179;54.350;10.102;2022-10-30T13:12:41;23.93;;;11.30;;
6292;SDS011;3179;54.350;10.102;2022-10-30T13:15:13;19.03;;;10.10;;
6292;SDS011;3179;54.350;10.102;2022-10-30T13:17:47;17.67;;;9.77;;
6292;SDS011;3179;54.350;10.102;2022-10-30T13:20:14;18.67;;;10.93;;
6292;SDS011;3179;54.350;10.102;2022-10-30T13:22:43;22.60;;;10.67;;
6292;SDS011;3179;54.350;10.102;2022-10-30T13:25:17;21.47;;;10.97;;
6292;SDS011;3179;54.350;10.102;2022-10-30T13:27:49;24.10;;;10.90;;
6292;SDS011;3179;54.350;10.102;2022-10-30T13:30:20;20.87;;;9.73;;
6292;SDS011;3179;54.350;10.102;2022-10-30T13:32:54;20.73;;;10.80;;
6292;SDS011;3179;54.350;10.102;2022-10-30T13:35:31;21.23;;;10.07;;
6292;SDS011;3179;54.350;10.102;2022-10-30T13:38:03;17.90;;;9.70;;
6292;SDS011;3179;54.350;10.102;2022-10-30T13:40:51;15.40;;;9.20;;
6292;SDS011;3179;54.350;10.102;2022-10-30T13:43:26;18.80;;;9.30;;
6292;SDS011;3179;54.350;10.102;2022-10-30T13:46:16;20.73;;;10.50;;
6292;SDS011;3179;54.350;10.102;2022-10-30T13:48:57;20.93;;;8.60;;
6292;SDS011;3179;54.350;10.102;2022-10-30T13:51:36;20.33;;;8.57;;
6292;SDS011;3179;54.350;10.102;2022-10-30T13:54:12;16.10;;;9.10;;
6292;SDS011;3179;54.350;10.102;2022-10-30T13:56:42;21.87;;;10.20;;
6292;SDS011;3179;54.350;10.102;2022-10-30T13:59:16;18.30;;;8.80;;
6292;SDS011;3179;54.350;10.102;2022-10-30T14:01:50;19.07;;;8.93;;
6292;SDS011;3179;54.350;10.102;2022-10-30T14:04:25;19.33;;;9.47;;
6292;SDS011;3179;54.350;10.102;2022-10-30T14:06:59;17.37;;;9.03;;
6292;SDS011;3179;54.350;10.102;2022-10-30T14:09:44;24.30;;;10.07;;
6292;SDS011;3179;54.350;10.102;2022-10-30T14:15:17;15.13;;;8.43;;
6292;SDS011;3179;54.350;10.102;2022-10-30T14:20:53;15.70;;;8.60;;
6292;SDS011;3179;54.350;10.102;2022-10-30T14:23:22;18.30;;;8.20;;
6292;SDS011;3179;54.350;10.102;2022-10-30T14:28:39;18.00;;;8.10;;
6292;SDS011;3179;54.350;10.102;2022-10-30T14:31:10;17.53;;;8.10;;
6292;SDS011;3179;54.350;10.102;2022-10-30T14:33:41;10.90;;;7.30;;
6292;SDS011;3179;54.350;10.102;2022-10-30T14:36:20;19.17;;;7.77;;
6292;SDS011;3179;54.350;10.102;2022-10-30T14:38:52;13.93;;;8.40;;
6292;SDS011;3179;54.350;10.102;2022-10-30T14:41:27;18.63;;;8.27;;
6292;SDS011;3179;54.350;10.102;2022-10-30T14:44:02;13.90;;;8.37;;
6292;SDS011;3179;54.350;10.102;2022-10-30T14:46:50;16.23;;;7.43;;
6292;SDS011;3179;54.350;10.102;2022-10-30T14:49:36;19.33;;;9.07;;
6292;SDS011;3179;54.350;10.102;2022-10-30T14:52:14;18.13;;;8.17;;
6292;SDS011;3179;54.350;10.102;2022-10-30T14:54:48;12.03;;;8.07;;
6292;SDS011;3179;54.350;10.102;2022-10-30T14:57:21;10.60;;;6.93;;
6292;SDS011;3179;54.350;10.102;2022-10-30T15:03:03;16.40;;;8.87;;
6292;SDS011;3179;54.350;10.102;2022-10-30T15:05:38;13.37;;;7.77;;
6292;SDS011;3179;54.350;10.102;2022-10-30T15:08:11;18.90;;;7.73;;